Startpagina
METAR-TAF:

METAR-TAF

Vliegvelden :

Internationale Luchthaven van Peking

Peking, China

breedte: 39-56N, lengte: 116-17E, hoogte: 55 m

Actueel weer

Dit bericht is 24 minuten geleden gemaakt, om 01:30 UTC
Wind 8 kt uit het westen, variërend tussen het westen en het noordwesten
Temperatuur 9°C
Vochtigheid 20%
Druk 1023 hPa
Zicht 10 km of meer
geen wolken onder 1500 m en geen cumulonimbus

METAR: ZBAA 180130Z 28004MPS 260V320 CAVOK 09/M13 Q1023 NOSIG

Tijdstip: 09:54 (01:54 UTC)

Verwachting

Dit bericht is 4 uur en het 34 minuten geleden gemaakt, om 21:20 UTC
Verwachting geldig van 18 om 00 UTC tot 18 om 24 UTC
Wind 8 kt uit het noordnoordwesten
Zicht 10 km of meer
geen wolken onder 1500 m en geen cumulonimbus

TAF: ZBAA 172120Z 1800/1824 33004MPS CAVOK TX10/1807Z TNM02/21Z

Waarnemingen en weersverwachtingen van meer dan 4000 vliegvelden (METAR en TAF).

De beschikbare stations zijn de gele en rode punten op de kaart.

Ga met uw muis naar het station om de naam te zien.

Klik dan om waarnemingen en weersverwachtingen te zien.

kaart wijzigen: klik op de groene knoppen met een zwart kruis om in te zoomen, op de groene knop met een streepje om uit te zoomen of op de groene pijlen voor aangrenzende kaarten.


METAR-TAF: